Orlando, Florida
Traffic Map
Current Weather Conditions
Orlando, Florida
Overcast
Overcast
62°
Feels Like: 62°
Wind Chill: 62° Ceiling: 600
Heat Index: 62° Visibility: 9mi
Dew Point: 60° Wind: 7mph
Humidity: 93% Direction: 320° (NW)
Pressure: 29.88in Gusts: 0mph
Raw Report DataKORL 241253Z 32006KT 9SM OVC006 17/16 A2988 RMK AO2 SLP122 T01670156
Traffic Incident Summary
Active as of:
Severity:
Category:
InformationThere was an issue retrieving the traffic information for this location. Please try a different location or try again shortly.
Advertisements